Time,TemperatureF,DewpointF,PressureIn,WindDirection,WindDirectionDegrees,WindSpeedMPH,WindSpeedGustMPH,Humidity,HourlyPrecipIn,Conditions,Clouds,dailyrainin,SolarRadiationWatts/m^2,SoftwareType,DateUTC
2013-04-04 00:00:00,59.0,50.0,30.04,NE,49,0.0,1.0,72,0.00,,,0.01,0,Wunderground v.1.15,2013-04-04 07:00:00,
2013-04-04 00:10:00,59.0,50.0,30.04,NE,49,0.0,2.0,72,0.00,,,0.00,0,Wunderground v.1.15,2013-04-04 07:10:00,
2013-04-04 00:20:00,58.3,49.3,30.04,WSW,249,0.0,0.0,72,0.00,,,0.00,0,Wunderground v.1.15,2013-04-04 07:20:00,
2013-04-04 00:30:00,58.0,49.4,30.04,WSW,246,1.0,3.0,73,0.00,,,0.00,0,Wunderground v.1.15,2013-04-04 07:30:00,
2013-04-04 00:40:00,57.6,49.4,30.04,West,260,0.0,3.0,74,0.00,,,0.00,0,Wunderground v.1.15,2013-04-04 07:40:00,
2013-04-04 00:50:00,57.2,49.0,30.04,West,259,2.0,2.0,74,0.00,,,0.00,0,Wunderground v.1.15,2013-04-04 07:50:00,
2013-04-04 01:00:00,56.9,49.1,30.04,SSE,163,0.0,0.0,75,0.00,,,0.00,0,Wunderground v.1.15,2013-04-04 08:00:00,
2013-04-04 01:10:00,56.7,49.2,30.05,SW,232,1.0,1.0,76,0.00,,,0.00,0,Wunderground v.1.15,2013-04-04 08:10:00,
2013-04-04 01:20:00,56.5,49.0,30.05,West,271,1.0,1.0,76,0.00,,,0.00,0,Wunderground v.1.15,2013-04-04 08:20:00,
2013-04-04 01:30:00,56.3,49.2,30.04,West,267,0.0,1.0,77,0.00,,,0.00,0,Wunderground v.1.15,2013-04-04 08:30:00,
2013-04-04 01:40:00,56.2,49.4,30.04,SSE,167,1.0,1.0,78,0.00,,,0.00,0,Wunderground v.1.15,2013-04-04 08:40:00,
2013-04-04 01:50:00,56.2,49.4,30.04,SSE,151,2.0,3.0,78,0.00,,,0.00,0,Wunderground v.1.15,2013-04-04 08:50:00,
2013-04-04 02:00:00,56.3,49.2,30.04,South,173,3.0,3.0,77,0.00,,,0.00,0,Wunderground v.1.15,2013-04-04 09:00:00,
2013-04-04 02:10:00,56.4,49.3,30.04,SSE,165,1.0,1.0,77,0.00,,,0.00,0,Wunderground v.1.15,2013-04-04 09:10:00,
2013-04-04 02:20:00,56.4,49.3,30.04,South,182,1.0,4.0,77,0.00,,,0.00,0,Wunderground v.1.15,2013-04-04 09:20:00,
2013-04-04 02:30:00,56.3,49.2,30.03,SSE,160,1.0,4.0,77,0.00,,,0.00,0,Wunderground v.1.15,2013-04-04 09:30:00,
2013-04-04 02:40:00,56.4,48.9,30.03,South,169,2.0,2.0,76,0.00,,,0.00,0,Wunderground v.1.15,2013-04-04 09:40:00,
2013-04-04 02:50:00,56.3,49.2,30.03,WSW,245,1.0,4.0,77,0.00,,,0.00,0,Wunderground v.1.15,2013-04-04 09:50:00,
2013-04-04 03:00:00,56.0,49.6,30.03,WNW,288,2.0,2.0,79,0.00,,,0.00,0,Wunderground v.1.15,2013-04-04 10:00:00,
2013-04-04 03:10:00,55.5,49.8,30.02,WSW,245,1.0,1.0,81,0.00,,,0.01,0,Wunderground v.1.15,2013-04-04 10:10:00,
2013-04-04 03:20:00,54.9,48.8,30.02,SSE,168,3.0,5.0,80,0.04,,,0.02,0,Wunderground v.1.15,2013-04-04 10:20:00,
2013-04-04 03:30:00,54.8,49.4,30.02,SSE,157,6.0,6.0,82,0.08,,,0.03,0,Wunderground v.1.15,2013-04-04 10:30:00,
2013-04-04 03:40:00,54.5,49.4,30.02,South,169,5.0,9.0,83,0.06,,,0.04,0,Wunderground v.1.15,2013-04-04 10:40:00,
2013-04-04 03:50:00,54.3,49.6,30.02,SSE,167,7.0,7.0,84,0.09,,,0.06,0,Wunderground v.1.15,2013-04-04 10:50:00,
2013-04-04 04:00:00,54.1,49.7,30.03,SSE,157,6.0,6.0,85,0.07,,,0.08,0,Wunderground v.1.15,2013-04-04 11:00:00,
2013-04-04 04:10:00,53.9,49.8,30.04,SSE,164,3.0,5.0,86,0.08,,,0.09,0,Wunderground v.1.15,2013-04-04 11:10:00,
2013-04-04 04:20:00,53.6,49.5,30.05,SSW,205,2.0,2.0,86,0.05,,,0.09,0,Wunderground v.1.15,2013-04-04 11:20:00,
2013-04-04 04:30:00,53.6,49.5,30.05,SE,142,1.0,2.0,86,0.00,,,0.10,0,Wunderground v.1.15,2013-04-04 11:30:00,
2013-04-04 04:40:00,53.5,49.7,30.05,SSE,162,1.0,1.0,87,0.07,,,0.11,0,Wunderground v.1.15,2013-04-04 11:40:00,
2013-04-04 05:00:00,53.1,49.6,30.05,SE,141,3.0,6.0,88,0.15,,,0.17,0,Wunderground v.1.15,2013-04-04 12:00:00,
2013-04-04 05:10:00,52.9,49.7,30.03,SE,144,6.0,7.0,89,0.09,,,0.19,0,Wunderground v.1.15,2013-04-04 12:10:00,
2013-04-04 05:20:00,52.8,49.9,30.03,SSE,163,5.0,5.0,90,0.13,,,0.21,0,Wunderground v.1.15,2013-04-04 12:20:00,
2013-04-04 05:30:00,52.7,49.8,30.03,SSE,148,6.0,12.0,90,0.07,,,0.22,0,Wunderground v.1.15,2013-04-04 12:30:00,
2013-04-04 05:40:00,52.7,50.1,30.03,SE,144,7.0,7.0,91,0.05,,,0.23,0,Wunderground v.1.15,2013-04-04 12:40:00,
2013-04-04 05:50:00,52.6,50.0,30.03,SE,140,6.0,7.0,91,0.05,,,0.23,0,Wunderground v.1.15,2013-04-04 12:50:00,
2013-04-04 06:00:00,52.4,49.8,30.02,SSE,153,7.0,7.0,91,0.00,,,0.24,0,Wunderground v.1.15,2013-04-04 13:00:00,
2013-04-04 06:10:00,52.3,50.0,30.03,SE,134,5.0,5.0,92,0.00,,,0.24,0,Wunderground v.1.15,2013-04-04 13:10:00,
2013-04-04 06:20:00,52.3,50.0,30.04,SSE,152,6.0,10.0,92,0.00,,,0.24,0,Wunderground v.1.15,2013-04-04 13:20:00,
2013-04-04 06:30:00,52.3,50.0,30.04,SSE,148,7.0,7.0,92,0.00,,,0.24,0,Wunderground v.1.15,2013-04-04 13:30:00,
2013-04-04 06:40:00,52.1,49.8,30.03,SSE,154,8.0,13.0,92,0.00,,,0.25,0,Wunderground v.1.15,2013-04-04 13:40:00,
2013-04-04 06:50:00,51.6,49.4,30.04,SSE,152,10.0,12.0,92,0.00,,,0.25,0,Wunderground v.1.15,2013-04-04 13:50:00,
2013-04-04 07:00:00,51.6,49.4,30.05,SSE,160,10.0,10.0,92,0.00,,,0.25,0,Wunderground v.1.15,2013-04-04 14:00:00,
2013-04-04 07:20:00,51.8,49.5,30.06,SE,141,5.0,5.0,92,0.00,,,0.25,7,Wunderground v.1.15,2013-04-04 14:20:00,
2013-04-04 07:30:00,51.9,49.9,30.07,SSE,156,5.0,5.0,93,0.00,,,0.25,7,Wunderground v.1.15,2013-04-04 14:30:00,
2013-04-04 07:40:00,52.0,50.0,30.07,SSE,167,5.0,5.0,93,0.00,,,0.25,9,Wunderground v.1.15,2013-04-04 14:40:00,
2013-04-04 07:50:00,52.1,50.1,30.07,South,180,6.0,6.0,93,0.00,,,0.25,12,Wunderground v.1.15,2013-04-04 14:50:00,
2013-04-04 08:10:00,52.3,50.3,30.08,SSE,155,9.0,9.0,93,0.00,,,0.25,51,Wunderground v.1.15,2013-04-04 15:10:00,
2013-04-04 08:20:00,52.5,50.5,30.08,SE,143,8.0,13.0,93,0.00,,,0.25,88,Wunderground v.1.15,2013-04-04 15:20:00,
2013-04-04 08:30:00,52.7,50.7,30.09,SE,145,9.0,9.0,93,0.00,,,0.25,69,Wunderground v.1.15,2013-04-04 15:30:00,
2013-04-04 08:40:00,52.9,51.2,30.09,SSE,154,8.0,11.0,94,0.00,,,0.25,84,Wunderground v.1.15,2013-04-04 15:40:00,
2013-04-04 08:50:00,53.2,51.2,30.09,South,169,7.0,7.0,93,0.00,,,0.25,76,Wunderground v.1.15,2013-04-04 15:50:00,
2013-04-04 09:00:00,53.4,51.7,30.09,SSE,158,8.0,8.0,94,0.00,,,0.25,65,Wunderground v.1.15,2013-04-04 16:00:00,
2013-04-04 09:10:00,53.5,51.8,30.09,SE,141,9.0,9.0,94,0.00,,,0.25,62,Wunderground v.1.15,2013-04-04 16:10:00,
2013-04-04 09:20:00,53.9,52.2,30.10,SE,134,8.0,8.0,94,0.00,,,0.25,105,Wunderground v.1.15,2013-04-04 16:20:00,
2013-04-04 09:40:00,54.4,52.7,30.10,SSE,148,9.0,12.0,94,0.00,,,0.26,114,Wunderground v.1.15,2013-04-04 16:40:00,
2013-04-04 09:50:00,54.7,53.0,30.10,SSE,156,9.0,12.0,94,0.00,,,0.26,199,Wunderground v.1.15,2013-04-04 16:50:00,
2013-04-04 10:00:00,55.2,53.5,30.11,SSE,153,9.0,9.0,94,0.00,,,0.26,202,Wunderground v.1.15,2013-04-04 17:00:00,
2013-04-04 10:10:00,55.4,53.7,30.11,SSE,148,7.0,7.0,94,0.00,,,0.26,163,Wunderground v.1.15,2013-04-04 17:10:00,
2013-04-04 10:20:00,55.7,54.0,30.11,SSE,152,6.0,6.0,94,0.00,,,0.26,178,Wunderground v.1.15,2013-04-04 17:20:00,
2013-04-04 10:30:00,56.0,54.3,30.11,SSE,151,6.0,7.0,94,0.00,,,0.26,207,Wunderground v.1.15,2013-04-04 17:30:00,
2013-04-04 10:40:00,56.5,54.8,30.11,SE,144,4.0,4.0,94,0.00,,,0.26,294,Wunderground v.1.15,2013-04-04 17:40:00,
2013-04-04 10:50:00,57.3,55.6,30.11,South,176,4.0,4.0,94,0.00,,,0.26,315,Wunderground v.1.15,2013-04-04 17:50:00,
2013-04-04 11:00:00,58.4,56.7,30.12,SE,142,2.0,2.0,94,0.00,,,0.26,399,Wunderground v.1.15,2013-04-04 18:00:00,
2013-04-04 11:10:00,59.0,57.3,30.13,SSE,154,2.0,2.0,94,0.00,,,0.26,199,Wunderground v.1.15,2013-04-04 18:10:00,
2013-04-04 11:20:00,58.9,57.2,30.12,SE,145,2.0,4.0,94,0.00,,,0.26,325,Wunderground v.1.15,2013-04-04 18:20:00,
2013-04-04 11:30:00,59.0,57.0,30.12,SSE,152,4.0,4.0,93,0.00,,,0.26,390,Wunderground v.1.15,2013-04-04 18:30:00,
2013-04-04 11:40:00,60.0,57.7,30.12,SSE,155,3.0,3.0,92,0.00,,,0.26,466,Wunderground v.1.15,2013-04-04 18:40:00,
2013-04-04 11:50:00,60.6,57.7,30.12,SE,125,3.0,7.0,90,0.00,,,0.26,773,Wunderground v.1.15,2013-04-04 18:50:00,
2013-04-04 12:00:00,61.2,57.9,30.12,SE,124,2.0,2.0,89,0.00,,,0.26,443,Wunderground v.1.15,2013-04-04 19:00:00,
2013-04-04 12:10:00,62.1,58.5,30.12,SE,144,1.0,1.0,88,0.00,,,0.26,346,Wunderground v.1.15,2013-04-04 19:10:00,
2013-04-04 12:20:00,62.2,58.0,30.12,SE,127,2.0,2.0,86,0.00,,,0.26,424,Wunderground v.1.15,2013-04-04 19:20:00,
2013-04-04 12:30:00,61.9,57.7,30.12,SSE,153,2.0,7.0,86,0.00,,,0.26,489,Wunderground v.1.15,2013-04-04 19:30:00,
2013-04-04 12:40:00,61.4,56.8,30.12,SE,124,2.0,2.0,85,0.00,,,0.26,281,Wunderground v.1.15,2013-04-04 19:40:00,
2013-04-04 12:50:00,61.4,56.8,30.12,SE,138,1.0,3.0,85,0.00,,,0.26,338,Wunderground v.1.15,2013-04-04 19:50:00,
2013-04-04 13:00:00,62.7,58.1,30.12,NW,319,1.0,1.0,85,0.00,,,0.26,733,Wunderground v.1.15,2013-04-04 20:00:00,
2013-04-04 13:10:00,64.2,58.6,30.12,NE,50,1.0,1.0,82,0.00,,,0.26,1002,Wunderground v.1.15,2013-04-04 20:10:00,
2013-04-04 13:20:00,64.4,58.1,30.12,SE,145,2.0,2.0,80,0.00,,,0.26,380,Wunderground v.1.15,2013-04-04 20:20:00,
2013-04-04 13:30:00,64.1,57.1,30.12,SSE,153,1.0,1.0,78,0.00,,,0.26,220,Wunderground v.1.15,2013-04-04 20:30:00,
2013-04-04 13:40:00,63.8,56.8,30.12,SSE,149,1.0,2.0,78,0.00,,,0.26,179,Wunderground v.1.15,2013-04-04 20:40:00,
2013-04-04 13:50:00,63.8,57.9,30.12,SSE,153,1.0,1.0,81,0.00,,,0.26,438,Wunderground v.1.15,2013-04-04 20:50:00,
2013-04-04 14:00:00,63.7,57.4,30.12,NE,40,1.0,1.0,80,0.00,,,0.26,295,Wunderground v.1.15,2013-04-04 21:00:00,
2013-04-04 14:10:00,63.6,57.3,30.12,SSE,155,0.0,4.0,80,0.00,,,0.26,548,Wunderground v.1.15,2013-04-04 21:10:00,
2013-04-04 14:20:00,63.8,57.2,30.11,SE,134,1.0,1.0,79,0.00,,,0.26,299,Wunderground v.1.15,2013-04-04 21:20:00,
2013-04-04 14:30:00,64.0,57.7,30.11,NNE,30,0.0,0.0,80,0.00,,,0.26,327,Wunderground v.1.15,2013-04-04 21:30:00,
2013-04-04 14:40:00,64.2,57.5,30.11,East,91,0.0,0.0,79,0.00,,,0.26,315,Wunderground v.1.15,2013-04-04 21:40:00,
2013-04-04 14:50:00,64.5,57.8,30.11,NNE,32,0.0,0.0,79,0.00,,,0.26,366,Wunderground v.1.15,2013-04-04 21:50:00,
2013-04-04 15:00:00,64.5,57.8,30.10,NNE,22,0.0,0.0,79,0.00,,,0.26,236,Wunderground v.1.15,2013-04-04 22:00:00,
2013-04-04 15:10:00,64.1,57.1,30.11,North,360,1.0,1.0,78,0.00,,,0.26,345,Wunderground v.1.15,2013-04-04 22:10:00,
2013-04-04 15:20:00,64.2,57.2,30.10,SE,145,1.0,1.0,78,0.00,,,0.26,369,Wunderground v.1.15,2013-04-04 22:20:00,
2013-04-04 15:40:00,64.7,57.3,30.11,WNW,298,0.0,0.0,77,0.00,,,0.26,281,Wunderground v.1.15,2013-04-04 22:40:00,
2013-04-04 15:50:00,64.7,57.7,30.11,NNE,15,1.0,1.0,78,0.00,,,0.26,299,Wunderground v.1.15,2013-04-04 22:50:00,
2013-04-04 16:00:00,64.4,57.0,30.11,NNE,22,1.0,1.0,77,0.00,,,0.26,279,Wunderground v.1.15,2013-04-04 23:00:00,
2013-04-04 16:10:00,64.4,57.0,30.11,ESE,103,1.0,1.0,77,0.00,,,0.26,306,Wunderground v.1.15,2013-04-04 23:10:00,
2013-04-04 16:20:00,64.0,56.3,30.11,NW,311,1.0,1.0,76,0.00,,,0.26,211,Wunderground v.1.15,2013-04-04 23:20:00,
2013-04-04 16:30:00,63.6,56.3,30.11,NNE,18,1.0,1.0,77,0.00,,,0.26,225,Wunderground v.1.15,2013-04-04 23:30:00,
2013-04-04 16:40:00,63.8,56.8,30.10,WNW,294,1.0,3.0,78,0.00,,,0.26,578,Wunderground v.1.15,2013-04-04 23:40:00,
2013-04-04 16:50:00,64.3,56.6,30.10,NW,309,1.0,1.0,76,0.00,,,0.26,541,Wunderground v.1.15,2013-04-04 23:50:00,
2013-04-04 17:00:00,64.4,56.3,30.10,NNE,25,2.0,4.0,75,0.00,,,0.26,499,Wunderground v.1.15,2013-04-05 00:00:00,
2013-04-04 17:10:00,64.3,56.2,30.10,NW,311,1.0,5.0,75,0.00,,,0.26,466,Wunderground v.1.15,2013-04-05 00:10:00,
2013-04-04 17:20:00,63.6,55.2,30.11,WNW,288,1.0,1.0,74,0.00,,,0.26,234,Wunderground v.1.15,2013-04-05 00:20:00,
2013-04-04 17:30:00,63.4,55.0,30.10,West,276,1.0,2.0,74,0.00,,,0.26,397,Wunderground v.1.15,2013-04-05 00:30:00,
2013-04-04 17:40:00,63.4,55.3,30.10,West,264,1.0,1.0,75,0.00,,,0.26,362,Wunderground v.1.15,2013-04-05 00:40:00,
2013-04-04 17:50:00,63.2,55.1,30.10,SSE,152,2.0,2.0,75,0.00,,,0.26,325,Wunderground v.1.15,2013-04-05 00:50:00,
2013-04-04 18:00:00,63.3,55.2,30.10,SE,136,0.0,2.0,75,0.00,,,0.26,288,Wunderground v.1.15,2013-04-05 01:00:00,
2013-04-04 18:10:00,62.7,53.9,30.10,SE,140,1.0,1.0,73,0.00,,,0.26,40,Wunderground v.1.15,2013-04-05 01:10:00,
2013-04-04 18:20:00,61.8,53.4,30.10,WNW,302,1.0,1.0,74,0.00,,,0.26,86,Wunderground v.1.15,2013-04-05 01:20:00,
2013-04-04 18:30:00,61.2,53.6,30.10,SE,126,0.0,0.0,76,0.00,,,0.26,62,Wunderground v.1.15,2013-04-05 01:30:00,
2013-04-04 18:40:00,60.8,53.5,30.11,NNW,329,0.0,0.0,77,0.00,,,0.26,65,Wunderground v.1.15,2013-04-05 01:40:00,
2013-04-04 18:50:00,60.4,53.9,30.11,ENE,68,1.0,1.0,79,0.00,,,0.26,53,Wunderground v.1.15,2013-04-05 01:50:00,
2013-04-04 19:00:00,60.1,53.9,30.11,ESE,109,0.0,0.0,80,0.00,,,0.26,28,Wunderground v.1.15,2013-04-05 02:00:00,
2013-04-04 19:10:00,59.8,53.6,30.10,SE,140,0.0,5.0,80,0.00,,,0.26,11,Wunderground v.1.15,2013-04-05 02:10:00,
2013-04-04 19:20:00,59.4,53.6,30.11,West,272,2.0,2.0,81,0.00,,,0.26,5,Wunderground v.1.15,2013-04-05 02:20:00,
2013-04-04 19:30:00,59.1,53.3,30.11,WNW,290,1.0,1.0,81,0.00,,,0.26,0,Wunderground v.1.15,2013-04-05 02:30:00,
2013-04-04 19:40:00,59.0,53.5,30.11,WSW,241,0.0,0.0,82,0.00,,,0.26,0,Wunderground v.1.15,2013-04-05 02:40:00,
2013-04-04 19:50:00,58.7,53.5,30.11,NNE,33,1.0,1.0,83,0.00,,,0.26,0,Wunderground v.1.15,2013-04-05 02:50:00,
2013-04-04 20:00:00,58.3,53.2,30.11,North,360,1.0,1.0,83,0.00,,,0.26,0,Wunderground v.1.15,2013-04-05 03:00:00,
2013-04-04 20:10:00,58.1,53.3,30.11,North,360,1.0,1.0,84,0.00,,,0.26,0,Wunderground v.1.15,2013-04-05 03:10:00,
2013-04-04 20:20:00,57.8,53.0,30.11,ENE,77,1.0,1.0,84,0.00,,,0.26,0,Wunderground v.1.15,2013-04-05 03:20:00,
2013-04-04 20:30:00,57.6,52.8,30.12,North,350,0.0,0.0,84,0.00,,,0.26,0,Wunderground v.1.15,2013-04-05 03:30:00,
2013-04-04 20:40:00,57.4,52.6,30.12,South,172,1.0,1.0,84,0.00,,,0.26,0,Wunderground v.1.15,2013-04-05 03:40:00,
2013-04-04 20:50:00,57.4,52.6,30.13,ESE,123,0.0,0.0,84,0.00,,,0.26,0,Wunderground v.1.15,2013-04-05 03:50:00,
2013-04-04 21:00:00,57.4,52.6,30.13,NW,311,0.0,0.0,84,0.00,,,0.26,0,Wunderground v.1.15,2013-04-05 04:00:00,
2013-04-04 21:10:00,57.5,53.0,30.13,South,175,0.0,0.0,85,0.00,,,0.26,0,Wunderground v.1.15,2013-04-05 04:10:00,
2013-04-04 21:20:00,57.4,52.9,30.13,SE,128,0.0,0.0,85,0.00,,,0.26,0,Wunderground v.1.15,2013-04-05 04:20:00,
2013-04-04 21:30:00,57.3,52.8,30.13,East,80,0.0,0.0,85,0.00,,,0.26,0,Wunderground v.1.15,2013-04-05 04:30:00,
2013-04-04 21:40:00,57.1,52.6,30.14,SSE,155,0.0,0.0,85,0.00,,,0.26,0,Wunderground v.1.15,2013-04-05 04:40:00,
2013-04-04 21:50:00,57.0,52.5,30.14,North,350,0.0,0.0,85,0.00,,,0.26,0,Wunderground v.1.15,2013-04-05 04:50:00,
2013-04-04 22:00:00,56.9,52.1,30.14,East,96,1.0,1.0,84,0.00,,,0.26,0,Wunderground v.1.15,2013-04-05 05:00:00,
2013-04-04 22:10:00,57.0,52.5,30.15,WSW,254,0.0,0.0,85,0.00,,,0.26,0,Wunderground v.1.15,2013-04-05 05:10:00,
2013-04-04 22:20:00,56.9,52.4,30.15,ENE,66,1.0,2.0,85,0.00,,,0.26,0,Wunderground v.1.15,2013-04-05 05:20:00,
2013-04-04 22:30:00,56.6,52.5,30.14,West,259,0.0,0.0,86,0.00,,,0.26,0,Wunderground v.1.15,2013-04-05 05:30:00,
2013-04-04 22:40:00,56.4,52.3,30.14,WNW,291,1.0,1.0,86,0.00,,,0.26,0,Wunderground v.1.15,2013-04-05 05:40:00,
2013-04-04 22:50:00,56.3,52.2,30.14,NNE,18,0.0,0.0,86,0.00,,,0.26,0,Wunderground v.1.15,2013-04-05 05:50:00,
2013-04-04 23:00:00,56.2,52.1,30.14,West,263,1.0,1.0,86,0.00,,,0.26,0,Wunderground v.1.15,2013-04-05 06:00:00,
2013-04-04 23:10:00,56.2,52.1,30.15,WSW,244,1.0,1.0,86,0.00,,,0.26,0,Wunderground v.1.15,2013-04-05 06:10:00,
2013-04-04 23:20:00,56.2,52.1,30.15,North,9,1.0,3.0,86,0.00,,,0.26,0,Wunderground v.1.15,2013-04-05 06:20:00,
2013-04-04 23:30:00,56.2,52.1,30.15,ENE,72,1.0,1.0,86,0.00,,,0.26,0,Wunderground v.1.15,2013-04-05 06:30:00,
2013-04-04 23:40:00,56.1,52.3,30.15,SW,228,0.0,0.0,87,0.00,,,0.26,0,Wunderground v.1.15,2013-04-05 06:40:00,
2013-04-04 23:50:00,56.0,52.2,30.15,SW,221,1.0,1.0,87,0.00,,,0.26,0,Wunderground v.1.15,2013-04-05 06:50:00,